createdAt,value
2023-11-25T00:02:03.631Z,97013.00
2023-11-25T00:04:32.618Z,97016.53
2023-11-25T00:07:00.275Z,97008.97
2023-11-25T00:09:30.218Z,97005.97
2023-11-25T00:11:57.844Z,97001.84
2023-11-25T00:14:25.517Z,97002.06
2023-11-25T00:16:53.180Z,97009.16
2023-11-25T00:19:20.897Z,96996.53
2023-11-25T00:21:49.835Z,97003.19
2023-11-25T00:24:17.485Z,96995.22
2023-11-25T00:26:45.069Z,96995.38
2023-11-25T00:29:12.670Z,96982.78
2023-11-25T00:31:40.331Z,96988.03
2023-11-25T00:34:08.015Z,97002.72
2023-11-25T00:36:35.664Z,96999.16
2023-11-25T00:39:04.680Z,97001.25
2023-11-25T00:41:32.265Z,97001.44
2023-11-25T00:43:59.878Z,97004.50
2023-11-25T00:46:27.589Z,96995.72
2023-11-25T00:48:55.266Z,96998.78
2023-11-25T00:51:22.908Z,97005.84
2023-11-25T00:53:50.521Z,97002.88
2023-11-25T00:56:19.478Z,96998.00
2023-11-25T00:58:47.094Z,97009.72
2023-11-25T01:01:14.735Z,97017.94
2023-11-25T01:03:42.434Z,97019.63
2023-11-25T01:06:10.619Z,97028.53
2023-11-25T01:08:38.204Z,97027.31
2023-11-25T01:11:06.424Z,97023.09
2023-11-25T01:13:35.471Z,97017.88
2023-11-25T01:16:03.590Z,97017.91
2023-11-25T01:18:31.766Z,97017.03
2023-11-25T01:20:59.393Z,97011.25
2023-11-25T01:23:27.005Z,97014.94
2023-11-25T01:25:54.678Z,97010.84
2023-11-25T01:28:22.278Z,97020.91
2023-11-25T01:30:51.257Z,97026.63
2023-11-25T01:33:18.840Z,97032.78
2023-11-25T01:35:48.468Z,97030.69
2023-11-25T01:38:16.462Z,97038.50
2023-11-25T01:40:44.310Z,97046.41
2023-11-25T01:43:12.515Z,97045.41
2023-11-25T01:45:41.071Z,97044.41
2023-11-25T01:48:10.821Z,97050.06
2023-11-25T01:50:38.544Z,97059.19
2023-11-25T01:53:06.910Z,97062.06
2023-11-25T01:55:35.438Z,97065.16
2023-11-25T01:58:03.263Z,97067.13
2023-11-25T02:00:30.869Z,97071.38
2023-11-25T02:02:58.529Z,97050.06
2023-11-25T02:05:27.680Z,97052.81
2023-11-25T02:07:55.336Z,97056.31
2023-11-25T02:10:22.956Z,97049.53
2023-11-25T02:12:50.536Z,97053.31
2023-11-25T02:15:18.357Z,97044.94
2023-11-25T02:17:45.967Z,97040.50
2023-11-25T02:20:14.036Z,97054.56
2023-11-25T02:22:52.167Z,97048.50
2023-11-25T02:25:19.869Z,97041.56
2023-11-25T02:27:47.557Z,97046.63
2023-11-25T02:30:15.293Z,97041.78
2023-11-25T02:32:42.961Z,97046.88
2023-11-25T02:35:10.866Z,97041.59
2023-11-25T02:37:38.612Z,97049.94
2023-11-25T02:40:09.676Z,97039.38
2023-11-25T02:42:37.300Z,97038.72
2023-11-25T02:45:06.009Z,97040.91
2023-11-25T02:47:33.660Z,97035.41
2023-11-25T02:50:01.251Z,97031.00
2023-11-25T02:52:28.835Z,97030.31
2023-11-25T02:54:56.415Z,97033.13
2023-11-25T02:57:25.370Z,97039.25
2023-11-25T02:59:52.938Z,97040.03
2023-11-25T03:02:20.633Z,97043.13
2023-11-25T03:04:48.321Z,97046.91
2023-11-25T03:07:15.971Z,97033.88
2023-11-25T03:09:43.563Z,97035.53
2023-11-25T03:12:11.650Z,97040.13
2023-11-25T03:14:40.564Z,97041.47
2023-11-25T03:17:08.263Z,97039.16
2023-11-25T03:19:35.898Z,97036.50
2023-11-25T03:22:04.672Z,97033.38
2023-11-25T03:24:32.290Z,97047.91
2023-11-25T03:26:59.929Z,97048.19
2023-11-25T03:29:27.514Z,97046.66
2023-11-25T03:31:56.626Z,97045.41
2023-11-25T03:34:24.276Z,97046.72
2023-11-25T03:36:51.909Z,97047.44
2023-11-25T03:39:21.225Z,97051.06
2023-11-25T03:41:48.835Z,97043.97
2023-11-25T03:44:16.419Z,97034.44
2023-11-25T03:46:44.118Z,97046.94
2023-11-25T03:49:13.619Z,97045.75
2023-11-25T03:51:41.277Z,97054.22
2023-11-25T03:54:08.914Z,97055.47
2023-11-25T03:56:36.514Z,97047.75
2023-11-25T03:59:04.144Z,97057.16
2023-11-25T04:01:31.852Z,97062.94
2023-11-25T04:03:59.555Z,97054.38
2023-11-25T04:06:28.530Z,97045.19
2023-11-25T04:08:56.146Z,97038.63
2023-11-25T04:11:23.726Z,97023.53
2023-11-25T04:13:51.342Z,97041.69
2023-11-25T04:16:19.086Z,97045.16
2023-11-25T04:18:47.025Z,97052.59
2023-11-25T04:21:14.761Z,97050.28
2023-11-25T04:23:43.750Z,97056.91
2023-11-25T04:26:11.356Z,97052.94
2023-11-25T04:28:38.962Z,97057.34
2023-11-25T04:31:06.608Z,97049.53
2023-11-25T04:33:34.235Z,97045.31
2023-11-25T04:36:01.822Z,97043.59
2023-11-25T04:38:29.382Z,97049.38
2023-11-25T04:40:58.627Z,97045.69
2023-11-25T04:43:26.321Z,97042.09
2023-11-25T04:45:53.901Z,97041.63
2023-11-25T04:48:21.547Z,97041.91
2023-11-25T04:50:49.190Z,97035.81
2023-11-25T04:53:16.785Z,97034.53
2023-11-25T04:55:44.383Z,97026.72
2023-11-25T04:58:13.387Z,97032.97
2023-11-25T05:00:41.106Z,97032.22
2023-11-25T05:03:08.733Z,97026.19
2023-11-25T05:05:36.309Z,97026.28
2023-11-25T05:08:04.254Z,97026.88
2023-11-25T05:10:31.967Z,97033.84
2023-11-25T05:12:59.671Z,97033.81
2023-11-25T05:15:28.639Z,97030.28
2023-11-25T05:17:56.378Z,97022.44
2023-11-25T05:20:24.006Z,97037.81
2023-11-25T05:22:51.706Z,97034.53
2023-11-25T05:25:19.413Z,97023.53
2023-11-25T05:27:47.064Z,97005.47
2023-11-25T05:30:15.507Z,97006.97
2023-11-25T05:32:44.877Z,97009.00
2023-11-25T05:35:13.675Z,97017.88
2023-11-25T05:37:41.316Z,97019.22
2023-11-25T05:40:09.981Z,97017.88
2023-11-25T05:42:37.571Z,97021.50
2023-11-25T05:45:07.792Z,97020.88
2023-11-25T05:47:35.418Z,97021.56
2023-11-25T05:50:05.233Z,97019.88
2023-11-25T05:52:32.937Z,97023.19
2023-11-25T05:55:00.565Z,97024.19
2023-11-25T05:57:28.150Z,97016.28
2023-11-25T05:59:55.721Z,97017.25
2023-11-25T06:02:23.319Z,97012.50
2023-11-25T06:04:51.067Z,97017.88
2023-11-25T06:07:20.110Z,97023.91
2023-11-25T06:09:47.773Z,97015.50
2023-11-25T06:12:15.408Z,97023.38
2023-11-25T06:14:43.063Z,97027.16
2023-11-25T06:17:10.642Z,97023.63
2023-11-25T06:19:38.340Z,97045.09
2023-11-25T06:22:05.959Z,97046.50
2023-11-25T06:24:34.900Z,97039.00
2023-11-25T06:27:02.568Z,97044.28
2023-11-25T06:29:30.435Z,97040.91
2023-11-25T06:31:58.066Z,97035.50
2023-11-25T06:34:25.677Z,97044.97
2023-11-25T06:36:53.294Z,97059.31
2023-11-25T06:39:20.923Z,97064.78
2023-11-25T06:41:49.952Z,97075.16
2023-11-25T06:44:17.714Z,97077.63
2023-11-25T06:46:45.393Z,97085.16
2023-11-25T06:49:13.322Z,97084.81
2023-11-25T06:51:41.206Z,97089.19
2023-11-25T06:54:09.116Z,97095.84
2023-11-25T06:56:37.529Z,97098.72
2023-11-25T06:59:06.625Z,97110.22
2023-11-25T07:01:34.907Z,97110.69
2023-11-25T07:04:02.953Z,97112.94
2023-11-25T07:06:30.543Z,97122.63
2023-11-25T07:08:58.157Z,97126.47
2023-11-25T07:11:25.900Z,97126.22
2023-11-25T07:13:53.521Z,97123.88
2023-11-25T07:16:22.551Z,97133.06
2023-11-25T07:18:50.191Z,97133.97
2023-11-25T07:21:17.876Z,97138.03
2023-11-25T07:23:45.476Z,97136.19
2023-11-25T07:26:15.479Z,97138.50
2023-11-25T07:28:43.517Z,97133.75
2023-11-25T07:31:11.414Z,97134.09
2023-11-25T07:33:40.393Z,97141.81
2023-11-25T07:36:08.415Z,97145.53
2023-11-25T07:38:35.997Z,97157.31
2023-11-25T07:41:03.608Z,97163.69
2023-11-25T07:43:31.236Z,97167.72
2023-11-25T07:45:58.850Z,97167.81
2023-11-25T07:48:26.460Z,97170.84
2023-11-25T07:50:55.406Z,97168.09
2023-11-25T07:53:23.044Z,97166.03
2023-11-25T07:55:50.810Z,97169.34
2023-11-25T07:58:18.722Z,97179.38
2023-11-25T08:00:46.333Z,97170.25
2023-11-25T08:03:14.106Z,97167.59
2023-11-25T08:05:41.893Z,97169.38
2023-11-25T08:08:10.875Z,97177.00
2023-11-25T08:10:39.090Z,97176.34
2023-11-25T08:13:06.744Z,97176.16
2023-11-25T08:15:34.427Z,97166.13
2023-11-25T08:18:02.367Z,97174.88
2023-11-25T08:20:30.064Z,97170.25
2023-11-25T08:22:57.704Z,97164.75
2023-11-25T08:25:26.761Z,97174.66
2023-11-25T08:27:54.416Z,97182.38
2023-11-25T08:30:22.259Z,97183.81
2023-11-25T08:32:49.985Z,97186.63
2023-11-25T08:35:17.713Z,97186.94
2023-11-25T08:37:45.342Z,97197.16
2023-11-25T08:40:13.132Z,97187.66
2023-11-25T08:42:42.292Z,97193.81
2023-11-25T08:45:10.461Z,97195.09
2023-11-25T08:47:38.166Z,97194.50
2023-11-25T08:50:07.079Z,97196.41
2023-11-25T08:52:34.733Z,97199.03
2023-11-25T08:55:02.387Z,97201.66
2023-11-25T08:57:30.063Z,97208.84
2023-11-25T08:59:59.051Z,97207.66
2023-11-25T09:02:26.741Z,97210.13
2023-11-25T09:05:03.287Z,97210.19
2023-11-25T09:07:36.023Z,97213.13
2023-11-25T09:10:04.767Z,97209.94
2023-11-25T09:12:32.426Z,97218.75
2023-11-25T09:15:01.822Z,97218.34
2023-11-25T09:17:29.439Z,97222.94
2023-11-25T09:19:57.083Z,97214.13
2023-11-25T09:22:24.775Z,97221.16
2023-11-25T09:24:52.416Z,97225.88
2023-11-25T09:27:20.050Z,97220.06
2023-11-25T09:29:47.737Z,97223.34
2023-11-25T09:32:16.683Z,97220.53
2023-11-25T09:34:44.286Z,97221.59
2023-11-25T09:37:11.925Z,97223.84
2023-11-25T09:39:39.550Z,97233.31
2023-11-25T09:42:07.598Z,97234.19
2023-11-25T09:44:38.622Z,97229.44
2023-11-25T09:47:07.955Z,97240.22
2023-11-25T09:49:37.008Z,97246.94
2023-11-25T09:52:05.476Z,97252.69
2023-11-25T09:54:35.974Z,97258.69
2023-11-25T09:57:06.158Z,97250.59
2023-11-25T09:59:35.053Z,97251.66
2023-11-25T10:02:04.653Z,97257.34
2023-11-25T10:04:33.124Z,97258.13
2023-11-25T10:07:02.168Z,97267.72
2023-11-25T10:09:29.800Z,97262.22
2023-11-25T10:11:57.421Z,97263.47
2023-11-25T10:14:27.348Z,97261.47
2023-11-25T10:16:55.053Z,97261.38
2023-11-25T10:19:24.354Z,97261.41
2023-11-25T10:21:52.592Z,97266.44
2023-11-25T10:24:21.680Z,97265.59
2023-11-25T10:26:50.343Z,97256.13
2023-11-25T10:29:19.902Z,97253.00
2023-11-25T10:31:56.004Z,97253.66
2023-11-25T10:34:24.135Z,97257.34
2023-11-25T10:36:51.829Z,97249.75
2023-11-25T10:39:23.176Z,97246.94
2023-11-25T10:41:51.993Z,97244.59
2023-11-25T10:44:20.801Z,97240.78
2023-11-25T10:46:48.474Z,97245.63
2023-11-25T10:49:17.092Z,97242.31
2023-11-25T10:51:45.652Z,97245.81
2023-11-25T10:54:16.247Z,97240.66
2023-11-25T10:56:45.623Z,97231.22
2023-11-25T10:59:13.466Z,97237.41
2023-11-25T11:01:44.357Z,97238.03
2023-11-25T11:04:22.479Z,97234.28
2023-11-25T11:06:54.201Z,97234.25
2023-11-25T11:09:26.481Z,97236.44
2023-11-25T11:12:02.222Z,97232.97
2023-11-25T11:14:35.987Z,97229.22
2023-11-25T11:17:11.592Z,97224.25
2023-11-25T11:19:43.304Z,97229.19
2023-11-25T11:22:12.475Z,97225.53
2023-11-25T11:25:07.277Z,97221.72
2023-11-25T11:27:47.465Z,97220.66
2023-11-25T11:30:26.758Z,97219.72
2023-11-25T11:32:57.155Z,97216.13
2023-11-25T11:35:35.669Z,97216.88
2023-11-25T11:38:03.374Z,97221.66
2023-11-25T11:40:31.035Z,97215.84
2023-11-25T11:43:03.656Z,97221.91
2023-11-25T11:45:31.418Z,97226.69
2023-11-25T11:48:00.915Z,97218.78
2023-11-25T11:50:30.906Z,97208.59
2023-11-25T11:53:15.106Z,97218.50
2023-11-25T11:55:49.768Z,97223.28
2023-11-25T11:58:20.253Z,97204.81
2023-11-25T12:00:49.711Z,97206.19
2023-11-25T12:03:18.584Z,97192.94
2023-11-25T12:05:46.514Z,97205.59
2023-11-25T12:08:14.431Z,97211.19
2023-11-25T12:10:42.360Z,97215.84
2023-11-25T12:13:10.355Z,97205.09
2023-11-25T12:15:39.893Z,97201.44
2023-11-25T12:18:10.554Z,97198.88
2023-11-25T12:20:38.894Z,97210.56
2023-11-25T12:23:08.026Z,97212.19
2023-11-25T12:25:37.143Z,97208.94
2023-11-25T12:28:09.530Z,97205.06
2023-11-25T12:30:40.338Z,97204.47
2023-11-25T12:33:10.118Z,97205.09
2023-11-25T12:35:39.294Z,97201.97
2023-11-25T12:38:14.904Z,97203.34
2023-11-25T12:40:44.361Z,97199.94
2023-11-25T12:43:12.021Z,97200.19
2023-11-25T12:45:42.398Z,97202.84
2023-11-25T12:48:13.141Z,97212.56
2023-11-25T12:51:01.042Z,97217.16
2023-11-25T12:53:28.717Z,97215.84
2023-11-25T12:55:57.959Z,97217.78
2023-11-25T12:58:25.923Z,97218.66
2023-11-25T13:00:56.774Z,97217.88
2023-11-25T13:03:26.236Z,97221.75
2023-11-25T13:05:59.088Z,97228.06
2023-11-25T13:08:29.060Z,97226.72
2023-11-25T13:10:57.609Z,97227.66
2023-11-25T13:13:28.151Z,97225.19
2023-11-25T13:15:59.223Z,97236.06
2023-11-25T13:18:27.813Z,97241.03
2023-11-25T13:20:56.652Z,97235.09
2023-11-25T13:23:24.519Z,97227.47
2023-11-25T13:25:52.238Z,97230.84
2023-11-25T13:28:20.127Z,97227.66
2023-11-25T13:30:47.807Z,97227.84
2023-11-25T13:33:17.056Z,97227.59
2023-11-25T13:35:45.522Z,97233.16
2023-11-25T13:38:13.926Z,97236.06
2023-11-25T13:40:41.625Z,97236.22
2023-11-25T13:43:11.111Z,97236.84
2023-11-25T13:45:38.753Z,97236.19
2023-11-25T13:48:06.503Z,97230.16
2023-11-25T13:50:35.831Z,97236.59
2023-11-25T13:53:03.529Z,97236.78
2023-11-25T13:55:31.252Z,97246.19
2023-11-25T13:57:58.990Z,97248.56
2023-11-25T14:00:27.870Z,97250.44
2023-11-25T14:02:55.828Z,97260.09
2023-11-25T14:05:23.509Z,97262.44
2023-11-25T14:07:52.538Z,97258.22
2023-11-25T14:10:20.656Z,97253.97
2023-11-25T14:12:48.310Z,97261.94
2023-11-25T14:15:15.949Z,97253.97
2023-11-25T14:17:43.653Z,97258.56
2023-11-25T14:20:12.069Z,97265.16
2023-11-25T14:22:39.733Z,97264.66
2023-11-25T14:25:09.353Z,97253.72
2023-11-25T14:27:36.963Z,97249.84
2023-11-25T14:30:05.625Z,97251.88
2023-11-25T14:32:33.298Z,97250.91
2023-11-25T14:35:01.197Z,97247.34
2023-11-25T14:37:28.967Z,97243.50
2023-11-25T14:40:00.944Z,97252.59
2023-11-25T14:42:32.872Z,97253.59
2023-11-25T14:45:01.879Z,97251.66
2023-11-25T14:47:29.691Z,97249.44
2023-11-25T14:49:57.489Z,97245.84
2023-11-25T14:52:25.182Z,97243.25
2023-11-25T14:54:53.575Z,97242.22
2023-11-25T14:57:21.749Z,97250.50
2023-11-25T14:59:50.726Z,97260.59
2023-11-25T15:02:18.445Z,97261.59
2023-11-25T15:04:46.162Z,97260.28
2023-11-25T15:07:13.949Z,97250.56
2023-11-25T15:09:43.481Z,97253.88
2023-11-25T15:12:11.145Z,97261.34
2023-11-25T15:14:39.119Z,97252.00
2023-11-25T15:17:08.438Z,97255.41
2023-11-25T15:19:36.221Z,97254.91
2023-11-25T15:22:04.215Z,97256.19
2023-11-25T15:24:31.900Z,97265.00
2023-11-25T15:26:59.705Z,97257.53
2023-11-25T15:29:27.322Z,97253.81
2023-11-25T15:31:55.023Z,97257.84
2023-11-25T15:34:24.028Z,97251.56
2023-11-25T15:36:51.682Z,97255.34
2023-11-25T15:39:19.397Z,97242.75
2023-11-25T15:41:47.287Z,97246.69
2023-11-25T15:44:14.947Z,97241.38
2023-11-25T15:46:42.632Z,97248.19
2023-11-25T15:49:10.269Z,97242.28
2023-11-25T15:51:39.277Z,97241.97
2023-11-25T15:54:07.082Z,97246.84
2023-11-25T15:56:34.702Z,97248.22
2023-11-25T15:59:02.485Z,97248.41
2023-11-25T16:01:32.709Z,97240.78
2023-11-25T16:04:00.643Z,97247.94
2023-11-25T16:06:28.447Z,97252.75
2023-11-25T16:08:57.508Z,97247.63
2023-11-25T16:11:25.146Z,97251.72
2023-11-25T16:13:52.797Z,97251.44
2023-11-25T16:16:20.491Z,97255.69
2023-11-25T16:18:48.116Z,97259.19
2023-11-25T16:21:15.845Z,97263.97
2023-11-25T16:23:45.261Z,97265.69
2023-11-25T16:26:14.564Z,97266.88
2023-11-25T16:28:42.325Z,97265.41
2023-11-25T16:31:11.344Z,97262.59
2023-11-25T16:33:39.451Z,97269.88
2023-11-25T16:36:07.804Z,97271.47
2023-11-25T16:38:35.476Z,97271.03
2023-11-25T16:41:04.145Z,97264.91
2023-11-25T16:43:34.863Z,97262.75
2023-11-25T16:46:03.883Z,97270.28
2023-11-25T16:48:39.401Z,97268.91
2023-11-25T16:51:16.331Z,97273.53
2023-11-25T16:53:44.005Z,97283.53
2023-11-25T16:56:11.688Z,97280.41
2023-11-25T16:58:40.735Z,97283.34
2023-11-25T17:01:08.352Z,97282.94
2023-11-25T17:03:36.476Z,97288.25
2023-11-25T17:06:06.588Z,97289.41
2023-11-25T17:08:34.612Z,97292.00
2023-11-25T17:11:02.341Z,97294.03
2023-11-25T17:13:30.013Z,97300.78
2023-11-25T17:15:59.103Z,97297.91
2023-11-25T17:18:26.798Z,97293.16
2023-11-25T17:20:54.413Z,97303.53
2023-11-25T17:23:22.056Z,97299.00
2023-11-25T17:25:49.864Z,97300.84
2023-11-25T17:28:17.557Z,97303.75
2023-11-25T17:30:45.196Z,97307.25
2023-11-25T17:33:14.389Z,97310.75
2023-11-25T17:35:42.248Z,97302.31
2023-11-25T17:38:09.976Z,97300.75
2023-11-25T17:40:37.731Z,97305.69
2023-11-25T17:43:05.463Z,97311.03
2023-11-25T17:45:33.163Z,97317.03
2023-11-25T17:48:00.951Z,97323.81
2023-11-25T17:50:30.012Z,97318.03
2023-11-25T17:53:06.752Z,97310.44
2023-11-25T17:55:40.114Z,97317.75
2023-11-25T17:58:07.783Z,97321.31
2023-11-25T18:00:35.505Z,97307.47
2023-11-25T18:03:03.565Z,97308.41
2023-11-25T18:05:32.730Z,97310.03
2023-11-25T18:08:00.448Z,97310.97
2023-11-25T18:10:28.294Z,97329.41
2023-11-25T18:12:56.014Z,97329.78
2023-11-25T18:15:23.659Z,97326.91
2023-11-25T18:17:51.428Z,97334.53
2023-11-25T18:20:19.351Z,97329.41
2023-11-25T18:22:48.516Z,97330.59
2023-11-25T18:25:16.287Z,97323.56
2023-11-25T18:27:44.090Z,97324.25
2023-11-25T18:30:12.088Z,97323.41
2023-11-25T18:32:39.894Z,97320.38
2023-11-25T18:35:08.445Z,97314.75
2023-11-25T18:37:36.220Z,97320.53
2023-11-25T18:40:06.411Z,97316.69
2023-11-25T18:42:34.063Z,97326.47
2023-11-25T18:45:01.761Z,97327.34
2023-11-25T18:47:29.614Z,97328.19
2023-11-25T18:49:57.650Z,97337.78
2023-11-25T18:52:25.364Z,97344.25
2023-11-25T18:54:53.511Z,97342.06
2023-11-25T18:57:23.523Z,97338.91
2023-11-25T18:59:51.149Z,97348.13
2023-11-25T19:02:18.860Z,97349.19
2023-11-25T19:04:46.580Z,97354.91
2023-11-25T19:07:14.244Z,97355.03
2023-11-25T19:09:41.892Z,97361.44
2023-11-25T19:12:09.517Z,97364.81
2023-11-25T19:14:38.487Z,97367.03
2023-11-25T19:17:06.300Z,97373.09
2023-11-25T19:19:34.011Z,97373.00
2023-11-25T19:22:01.646Z,97383.84
2023-11-25T19:24:29.287Z,97386.56
2023-11-25T19:26:56.981Z,97388.44
2023-11-25T19:29:24.635Z,97390.69
2023-11-25T19:31:53.695Z,97404.91
2023-11-25T19:34:21.284Z,97400.47
2023-11-25T19:36:48.894Z,97418.06
2023-11-25T19:39:16.588Z,97408.16
2023-11-25T19:41:44.186Z,97413.28
2023-11-25T19:44:11.829Z,97409.66
2023-11-25T19:46:39.509Z,97409.78
2023-11-25T19:49:08.467Z,97405.75
2023-11-25T19:51:36.068Z,97403.47
2023-11-25T19:54:03.964Z,97406.75
2023-11-25T19:56:31.562Z,97407.94
2023-11-25T19:58:59.212Z,97408.00
2023-11-25T20:01:26.908Z,97409.94
2023-11-25T20:03:54.579Z,97401.19
2023-11-25T20:06:23.581Z,97410.03
2023-11-25T20:08:51.187Z,97406.97
2023-11-25T20:11:18.791Z,97407.38
2023-11-25T20:13:46.408Z,97409.13
2023-11-25T20:16:14.048Z,97411.78
2023-11-25T20:18:41.648Z,97407.78
2023-11-25T20:21:09.345Z,97409.31
2023-11-25T20:23:38.446Z,97412.78
2023-11-25T20:26:06.437Z,97416.91
2023-11-25T20:28:34.175Z,97418.50
2023-11-25T20:31:03.629Z,97418.28
2023-11-25T20:33:31.527Z,97422.63
2023-11-25T20:35:59.159Z,97413.81
2023-11-25T20:38:27.396Z,97415.38
2023-11-25T20:40:56.440Z,97416.28
2023-11-25T20:43:24.098Z,97417.38
2023-11-25T20:45:51.804Z,97424.34
2023-11-25T20:48:19.491Z,97415.31
2023-11-25T20:50:47.093Z,97417.03
2023-11-25T20:53:14.775Z,97417.72
2023-11-25T20:55:42.416Z,97425.50
2023-11-25T20:58:11.419Z,97425.91
2023-11-25T21:00:39.180Z,97429.13
2023-11-25T21:03:06.930Z,97431.03
2023-11-25T21:05:34.587Z,97425.88
2023-11-25T21:08:02.242Z,97427.69
2023-11-25T21:10:29.889Z,97428.25
2023-11-25T21:12:57.478Z,97426.78
2023-11-25T21:15:26.428Z,97422.78
2023-11-25T21:17:54.075Z,97415.53
2023-11-25T21:20:21.731Z,97412.97
2023-11-25T21:22:49.435Z,97416.09
2023-11-25T21:25:17.072Z,97416.31
2023-11-25T21:27:44.647Z,97409.34
2023-11-25T21:30:13.438Z,97411.53
2023-11-25T21:32:42.492Z,97412.59
2023-11-25T21:35:10.293Z,97420.38
2023-11-25T21:37:38.017Z,97418.97
2023-11-25T21:40:13.910Z,97411.81
2023-11-25T21:42:48.283Z,97409.13
2023-11-25T21:45:16.065Z,97412.81
2023-11-25T21:47:45.070Z,97413.66
2023-11-25T21:50:12.712Z,97407.13
2023-11-25T21:52:40.381Z,97408.09
2023-11-25T21:55:08.675Z,97412.66
2023-11-25T21:57:36.340Z,97405.84
2023-11-25T22:00:05.021Z,97411.47
2023-11-25T22:02:32.834Z,97411.34
2023-11-25T22:05:03.417Z,97411.63
2023-11-25T22:07:31.032Z,97410.88
2023-11-25T22:09:58.699Z,97407.97
2023-11-25T22:12:26.327Z,97409.69
2023-11-25T22:14:53.972Z,97405.25
2023-11-25T22:17:21.617Z,97406.22
2023-11-25T22:19:49.259Z,97409.78
2023-11-25T22:22:18.325Z,97414.28
2023-11-25T22:24:45.936Z,97416.28
2023-11-25T22:27:13.699Z,97414.00
2023-11-25T22:29:41.282Z,97417.66
2023-11-25T22:32:09.032Z,97428.25
2023-11-25T22:34:36.705Z,97425.56
2023-11-25T22:37:04.617Z,97423.25
2023-11-25T22:39:33.566Z,97422.47
2023-11-25T22:42:01.187Z,97423.53
2023-11-25T22:44:28.817Z,97425.06
2023-11-25T22:46:56.510Z,97424.75
2023-11-25T22:49:24.134Z,97423.81
2023-11-25T22:51:51.783Z,97426.69
2023-11-25T22:54:19.422Z,97421.00
2023-11-25T22:56:48.381Z,97429.13
2023-11-25T22:59:16.001Z,97424.56
2023-11-25T23:01:43.647Z,97424.88
2023-11-25T23:04:11.341Z,97424.75
2023-11-25T23:06:38.977Z,97426.25
2023-11-25T23:09:06.591Z,97418.00
2023-11-25T23:11:34.992Z,97420.09
2023-11-25T23:14:04.287Z,97419.00
2023-11-25T23:16:32.059Z,97414.03
2023-11-25T23:19:00.233Z,97409.59
2023-11-25T23:21:27.874Z,97415.56
2023-11-25T23:23:55.988Z,97418.06
2023-11-25T23:26:23.611Z,97418.81
2023-11-25T23:28:51.257Z,97411.81
2023-11-25T23:31:20.242Z,97414.25
2023-11-25T23:33:47.839Z,97417.91
2023-11-25T23:36:15.429Z,97418.22
2023-11-25T23:38:43.046Z,97419.84
2023-11-25T23:41:10.661Z,97418.94
2023-11-25T23:43:38.294Z,97417.09
2023-11-25T23:46:05.935Z,97422.78
2023-11-25T23:48:34.932Z,97417.66
2023-11-25T23:51:02.667Z,97422.03
2023-11-25T23:53:30.359Z,97421.28
2023-11-25T23:55:58.399Z,97414.34
2023-11-25T23:58:26.055Z,97415.59
